sensor_id;sensor_type;location;lat;lon;timestamp;P1;durP1;ratioP1;P2;durP2;ratioP2
49592;SDS011;35499;51.482;4.264;2023-04-01T00:00:10;4.70;;;1.10;;
49592;SDS011;35499;51.482;4.264;2023-04-01T00:02:36;8.80;;;1.10;;
49592;SDS011;35499;51.482;4.264;2023-04-01T00:05:01;4.18;;;0.85;;
49592;SDS011;35499;51.482;4.264;2023-04-01T00:07:27;6.60;;;1.05;;
49592;SDS011;35499;51.482;4.264;2023-04-01T00:09:53;6.87;;;0.80;;
49592;SDS011;35499;51.482;4.264;2023-04-01T00:12:18;4.50;;;0.60;;
49592;SDS011;35499;51.482;4.264;2023-04-01T00:14:43;6.77;;;0.80;;
49592;SDS011;35499;51.482;4.264;2023-04-01T00:17:08;5.80;;;1.10;;
49592;SDS011;35499;51.482;4.264;2023-04-01T00:19:34;8.73;;;1.23;;
49592;SDS011;35499;51.482;4.264;2023-04-01T00:21:59;8.00;;;1.57;;
49592;SDS011;35499;51.482;4.264;2023-04-01T00:24:24;10.97;;;1.73;;
49592;SDS011;35499;51.482;4.264;2023-04-01T00:26:50;4.70;;;0.93;;
49592;SDS011;35499;51.482;4.264;2023-04-01T00:29:15;7.47;;;1.40;;
49592;SDS011;35499;51.482;4.264;2023-04-01T00:31:40;6.70;;;1.80;;
49592;SDS011;35499;51.482;4.264;2023-04-01T00:34:06;16.27;;;1.93;;
49592;SDS011;35499;51.482;4.264;2023-04-01T00:36:31;8.23;;;1.50;;
49592;SDS011;35499;51.482;4.264;2023-04-01T00:38:58;8.07;;;1.55;;
49592;SDS011;35499;51.482;4.264;2023-04-01T00:41:26;12.90;;;1.63;;
49592;SDS011;35499;51.482;4.264;2023-04-01T00:43:52;6.72;;;1.20;;
49592;SDS011;35499;51.482;4.264;2023-04-01T00:46:48;7.30;;;2.08;;
49592;SDS011;35499;51.482;4.264;2023-04-01T00:49:14;12.95;;;2.75;;
49592;SDS011;35499;51.482;4.264;2023-04-01T00:51:42;19.77;;;3.33;;
49592;SDS011;35499;51.482;4.264;2023-04-01T00:54:12;14.13;;;2.58;;
49592;SDS011;35499;51.482;4.264;2023-04-01T00:56:46;16.23;;;2.25;;
49592;SDS011;35499;51.482;4.264;2023-04-01T00:59:17;18.65;;;3.28;;
49592;SDS011;35499;51.482;4.264;2023-04-01T01:01:45;15.05;;;2.75;;
49592;SDS011;35499;51.482;4.264;2023-04-01T01:04:21;21.48;;;3.78;;
49592;SDS011;35499;51.482;4.264;2023-04-01T01:07:09;10.57;;;2.25;;
49592;SDS011;35499;51.482;4.264;2023-04-01T01:18:17;9.02;;;2.60;;
49592;SDS011;35499;51.482;4.264;2023-04-01T01:20:35;13.85;;;2.47;;
49592;SDS011;35499;51.482;4.264;2023-04-01T01:29:01;16.08;;;3.03;;
49592;SDS011;35499;51.482;4.264;2023-04-01T01:34:31;12.02;;;1.92;;
49592;SDS011;35499;51.482;4.264;2023-04-01T01:37:15;12.05;;;2.40;;
49592;SDS011;35499;51.482;4.264;2023-04-01T01:39:46;8.95;;;1.75;;
49592;SDS011;35499;51.482;4.264;2023-04-01T01:42:16;10.20;;;1.70;;
49592;SDS011;35499;51.482;4.264;2023-04-01T01:44:44;7.93;;;1.55;;
49592;SDS011;35499;51.482;4.264;2023-04-01T01:47:12;8.82;;;1.63;;
49592;SDS011;35499;51.482;4.264;2023-04-01T01:49:39;4.78;;;1.30;;
49592;SDS011;35499;51.482;4.264;2023-04-01T01:52:06;6.15;;;1.30;;
49592;SDS011;35499;51.482;4.264;2023-04-01T01:54:31;3.55;;;1.10;;
49592;SDS011;35499;51.482;4.264;2023-04-01T01:57:03;5.57;;;1.30;;
49592;SDS011;35499;51.482;4.264;2023-04-01T01:59:31;6.45;;;1.30;;
49592;SDS011;35499;51.482;4.264;2023-04-01T02:01:59;5.03;;;1.13;;
49592;SDS011;35499;51.482;4.264;2023-04-01T02:04:26;3.17;;;1.25;;
49592;SDS011;35499;51.482;4.264;2023-04-01T02:06:59;2.67;;;1.25;;
49592;SDS011;35499;51.482;4.264;2023-04-01T02:09:28;4.18;;;1.20;;
49592;SDS011;35499;51.482;4.264;2023-04-01T02:11:59;1.90;;;0.85;;
49592;SDS011;35499;51.482;4.264;2023-04-01T02:17:09;6.22;;;1.73;;
49592;SDS011;35499;51.482;4.264;2023-04-01T02:22:12;7.93;;;3.00;;
49592;SDS011;35499;51.482;4.264;2023-04-01T02:24:41;5.97;;;2.30;;
49592;SDS011;35499;51.482;4.264;2023-04-01T02:27:09;7.50;;;2.58;;
49592;SDS011;35499;51.482;4.264;2023-04-01T02:29:35;7.95;;;2.08;;
49592;SDS011;35499;51.482;4.264;2023-04-01T02:32:00;4.67;;;1.53;;
49592;SDS011;35499;51.482;4.264;2023-04-01T02:34:27;11.15;;;1.65;;
49592;SDS011;35499;51.482;4.264;2023-04-01T02:36:53;5.25;;;1.80;;
49592;SDS011;35499;51.482;4.264;2023-04-01T02:39:20;4.70;;;1.65;;
49592;SDS011;35499;51.482;4.264;2023-04-01T02:41:45;4.25;;;1.63;;
49592;SDS011;35499;51.482;4.264;2023-04-01T02:44:11;6.05;;;1.88;;
49592;SDS011;35499;51.482;4.264;2023-04-01T02:46:38;5.63;;;1.83;;
49592;SDS011;35499;51.482;4.264;2023-04-01T02:49:04;8.40;;;2.55;;
49592;SDS011;35499;51.482;4.264;2023-04-01T02:51:30;8.25;;;2.63;;
49592;SDS011;35499;51.482;4.264;2023-04-01T02:53:56;9.32;;;3.25;;
49592;SDS011;35499;51.482;4.264;2023-04-01T02:56:21;11.30;;;2.40;;
49592;SDS011;35499;51.482;4.264;2023-04-01T02:58:46;6.20;;;2.13;;
49592;SDS011;35499;51.482;4.264;2023-04-01T03:01:12;8.20;;;2.72;;
49592;SDS011;35499;51.482;4.264;2023-04-01T03:03:38;9.88;;;2.67;;
49592;SDS011;35499;51.482;4.264;2023-04-01T03:06:08;8.85;;;2.20;;
49592;SDS011;35499;51.482;4.264;2023-04-01T03:08:35;3.13;;;1.65;;
49592;SDS011;35499;51.482;4.264;2023-04-01T03:11:00;7.00;;;3.00;;
49592;SDS011;35499;51.482;4.264;2023-04-01T03:13:26;6.20;;;1.80;;
49592;SDS011;35499;51.482;4.264;2023-04-01T03:15:51;14.27;;;3.03;;
49592;SDS011;35499;51.482;4.264;2023-04-01T03:18:16;10.15;;;2.50;;
49592;SDS011;35499;51.482;4.264;2023-04-01T03:20:42;10.30;;;2.33;;
49592;SDS011;35499;51.482;4.264;2023-04-01T03:23:07;6.33;;;1.73;;
49592;SDS011;35499;51.482;4.264;2023-04-01T03:25:33;12.90;;;2.05;;
49592;SDS011;35499;51.482;4.264;2023-04-01T03:27:58;11.07;;;2.33;;
49592;SDS011;35499;51.482;4.264;2023-04-01T03:30:24;3.50;;;1.25;;
49592;SDS011;35499;51.482;4.264;2023-04-01T03:32:50;5.20;;;1.42;;
49592;SDS011;35499;51.482;4.264;2023-04-01T03:35:16;3.65;;;1.00;;
49592;SDS011;35499;51.482;4.264;2023-04-01T03:37:41;7.53;;;1.67;;
49592;SDS011;35499;51.482;4.264;2023-04-01T03:40:06;8.10;;;1.17;;
49592;SDS011;35499;51.482;4.264;2023-04-01T03:42:32;5.55;;;1.35;;
49592;SDS011;35499;51.482;4.264;2023-04-01T03:44:57;7.63;;;1.42;;
49592;SDS011;35499;51.482;4.264;2023-04-01T03:47:23;5.07;;;1.23;;
49592;SDS011;35499;51.482;4.264;2023-04-01T03:49:48;4.47;;;0.97;;
49592;SDS011;35499;51.482;4.264;2023-04-01T03:52:13;3.03;;;1.20;;
49592;SDS011;35499;51.482;4.264;2023-04-01T03:54:39;3.58;;;1.13;;
49592;SDS011;35499;51.482;4.264;2023-04-01T03:57:04;4.77;;;1.40;;
49592;SDS011;35499;51.482;4.264;2023-04-01T03:59:30;5.68;;;1.27;;
49592;SDS011;35499;51.482;4.264;2023-04-01T04:01:55;9.17;;;1.60;;
49592;SDS011;35499;51.482;4.264;2023-04-01T04:04:20;6.77;;;1.80;;
49592;SDS011;35499;51.482;4.264;2023-04-01T04:06:46;6.43;;;1.80;;
49592;SDS011;35499;51.482;4.264;2023-04-01T04:09:11;9.30;;;1.95;;
49592;SDS011;35499;51.482;4.264;2023-04-01T04:11:37;7.93;;;1.80;;
49592;SDS011;35499;51.482;4.264;2023-04-01T04:14:02;6.82;;;1.27;;
49592;SDS011;35499;51.482;4.264;2023-04-01T04:16:28;7.43;;;1.80;;
49592;SDS011;35499;51.482;4.264;2023-04-01T04:18:53;4.72;;;1.35;;
49592;SDS011;35499;51.482;4.264;2023-04-01T04:21:18;10.70;;;1.43;;
49592;SDS011;35499;51.482;4.264;2023-04-01T04:23:44;7.20;;;1.73;;
49592;SDS011;35499;51.482;4.264;2023-04-01T04:26:10;5.27;;;1.47;;
49592;SDS011;35499;51.482;4.264;2023-04-01T04:28:37;4.32;;;1.15;;
49592;SDS011;35499;51.482;4.264;2023-04-01T04:31:02;4.80;;;1.20;;
49592;SDS011;35499;51.482;4.264;2023-04-01T04:33:30;3.85;;;0.80;;
49592;SDS011;35499;51.482;4.264;2023-04-01T04:35:56;9.10;;;1.50;;
49592;SDS011;35499;51.482;4.264;2023-04-01T04:38:22;5.25;;;1.05;;
49592;SDS011;35499;51.482;4.264;2023-04-01T04:40:48;5.82;;;1.58;;
49592;SDS011;35499;51.482;4.264;2023-04-01T04:43:14;5.33;;;1.97;;
49592;SDS011;35499;51.482;4.264;2023-04-01T04:45:41;4.75;;;1.25;;
49592;SDS011;35499;51.482;4.264;2023-04-01T04:48:07;9.10;;;1.65;;
49592;SDS011;35499;51.482;4.264;2023-04-01T04:50:41;2.92;;;1.00;;
49592;SDS011;35499;51.482;4.264;2023-04-01T04:53:11;7.15;;;1.48;;
49592;SDS011;35499;51.482;4.264;2023-04-01T04:55:37;6.75;;;1.42;;
49592;SDS011;35499;51.482;4.264;2023-04-01T04:58:03;8.88;;;1.58;;
49592;SDS011;35499;51.482;4.264;2023-04-01T05:00:28;2.50;;;0.80;;
49592;SDS011;35499;51.482;4.264;2023-04-01T05:02:53;4.83;;;1.37;;
49592;SDS011;35499;51.482;4.264;2023-04-01T05:05:18;5.80;;;1.70;;
49592;SDS011;35499;51.482;4.264;2023-04-01T05:07:44;9.40;;;1.90;;
49592;SDS011;35499;51.482;4.264;2023-04-01T05:10:09;4.97;;;1.48;;
49592;SDS011;35499;51.482;4.264;2023-04-01T05:12:35;3.97;;;1.50;;
49592;SDS011;35499;51.482;4.264;2023-04-01T05:15:05;5.68;;;1.50;;
49592;SDS011;35499;51.482;4.264;2023-04-01T05:17:30;7.80;;;2.38;;
49592;SDS011;35499;51.482;4.264;2023-04-01T05:19:56;5.87;;;1.77;;
49592;SDS011;35499;51.482;4.264;2023-04-01T05:22:22;5.65;;;2.00;;
49592;SDS011;35499;51.482;4.264;2023-04-01T05:24:47;10.90;;;2.50;;
49592;SDS011;35499;51.482;4.264;2023-04-01T05:27:12;5.73;;;2.70;;
49592;SDS011;35499;51.482;4.264;2023-04-01T05:29:38;8.97;;;3.03;;
49592;SDS011;35499;51.482;4.264;2023-04-01T05:32:03;7.13;;;2.77;;
49592;SDS011;35499;51.482;4.264;2023-04-01T05:34:28;4.93;;;1.63;;
49592;SDS011;35499;51.482;4.264;2023-04-01T05:36:54;5.10;;;2.10;;
49592;SDS011;35499;51.482;4.264;2023-04-01T05:39:19;8.05;;;1.55;;
49592;SDS011;35499;51.482;4.264;2023-04-01T05:41:45;5.00;;;1.52;;
49592;SDS011;35499;51.482;4.264;2023-04-01T05:44:11;7.20;;;2.08;;
49592;SDS011;35499;51.482;4.264;2023-04-01T05:46:37;3.63;;;1.63;;
49592;SDS011;35499;51.482;4.264;2023-04-01T05:49:02;4.63;;;1.75;;
49592;SDS011;35499;51.482;4.264;2023-04-01T05:51:28;5.87;;;2.87;;
49592;SDS011;35499;51.482;4.264;2023-04-01T05:53:53;4.97;;;0.98;;
49592;SDS011;35499;51.482;4.264;2023-04-01T05:56:18;6.23;;;1.40;;
49592;SDS011;35499;51.482;4.264;2023-04-01T05:58:44;3.40;;;1.40;;
49592;SDS011;35499;51.482;4.264;2023-04-01T06:01:15;5.70;;;1.70;;
49592;SDS011;35499;51.482;4.264;2023-04-01T06:03:40;7.50;;;1.90;;
49592;SDS011;35499;51.482;4.264;2023-04-01T06:06:09;8.02;;;2.47;;
49592;SDS011;35499;51.482;4.264;2023-04-01T06:08:39;4.75;;;2.13;;
49592;SDS011;35499;51.482;4.264;2023-04-01T06:16:02;13.20;;;3.80;;
49592;SDS011;35499;51.482;4.264;2023-04-01T06:18:54;8.07;;;4.25;;
49592;SDS011;35499;51.482;4.264;2023-04-01T06:21:37;9.73;;;3.60;;
49592;SDS011;35499;51.482;4.264;2023-04-01T06:24:28;15.73;;;6.75;;
49592;SDS011;35499;51.482;4.264;2023-04-01T06:40:19;10.23;;;3.85;;
49592;SDS011;35499;51.482;4.264;2023-04-01T06:43:07;14.90;;;5.22;;
49592;SDS011;35499;51.482;4.264;2023-04-01T06:54:26;15.50;;;5.38;;
49592;SDS011;35499;51.482;4.264;2023-04-01T06:56:53;15.13;;;5.53;;
49592;SDS011;35499;51.482;4.264;2023-04-01T06:59:25;18.33;;;5.97;;
49592;SDS011;35499;51.482;4.264;2023-04-01T07:01:53;17.00;;;7.25;;
49592;SDS011;35499;51.482;4.264;2023-04-01T07:04:29;18.98;;;6.78;;
49592;SDS011;35499;51.482;4.264;2023-04-01T07:07:05;20.58;;;6.28;;
49592;SDS011;35499;51.482;4.264;2023-04-01T07:09:40;12.73;;;4.57;;
49592;SDS011;35499;51.482;4.264;2023-04-01T07:12:15;16.70;;;6.70;;
49592;SDS011;35499;51.482;4.264;2023-04-01T07:14:50;19.17;;;7.90;;
49592;SDS011;35499;51.482;4.264;2023-04-01T07:17:20;33.85;;;6.80;;
49592;SDS011;35499;51.482;4.264;2023-04-01T07:19:52;19.90;;;5.63;;
49592;SDS011;35499;51.482;4.264;2023-04-01T07:22:36;10.95;;;4.07;;
49592;SDS011;35499;51.482;4.264;2023-04-01T07:25:52;17.13;;;5.13;;
49592;SDS011;35499;51.482;4.264;2023-04-01T07:28:01;17.17;;;5.85;;
49592;SDS011;35499;51.482;4.264;2023-04-01T07:33:44;16.88;;;4.97;;
49592;SDS011;35499;51.482;4.264;2023-04-01T07:36:24;19.55;;;5.35;;
49592;SDS011;35499;51.482;4.264;2023-04-01T07:39:08;17.75;;;4.80;;
49592;SDS011;35499;51.482;4.264;2023-04-01T07:42:05;27.17;;;6.28;;
49592;SDS011;35499;51.482;4.264;2023-04-01T07:44:59;14.93;;;4.32;;
49592;SDS011;35499;51.482;4.264;2023-04-01T07:50:04;14.00;;;5.00;;
49592;SDS011;35499;51.482;4.264;2023-04-01T07:52:38;12.60;;;4.80;;
49592;SDS011;35499;51.482;4.264;2023-04-01T07:55:20;12.55;;;5.35;;
49592;SDS011;35499;51.482;4.264;2023-04-01T07:58:00;11.93;;;4.28;;
49592;SDS011;35499;51.482;4.264;2023-04-01T08:00:51;6.60;;;3.40;;
49592;SDS011;35499;51.482;4.264;2023-04-01T08:03:48;11.20;;;4.35;;
49592;SDS011;35499;51.482;4.264;2023-04-01T08:06:38;8.20;;;3.38;;
49592;SDS011;35499;51.482;4.264;2023-04-01T08:12:19;11.70;;;4.07;;
49592;SDS011;35499;51.482;4.264;2023-04-01T08:18:03;9.30;;;3.63;;
49592;SDS011;35499;51.482;4.264;2023-04-01T08:23:15;9.13;;;2.88;;
49592;SDS011;35499;51.482;4.264;2023-04-01T08:25:45;5.32;;;2.30;;
49592;SDS011;35499;51.482;4.264;2023-04-01T08:28:39;7.85;;;2.42;;
49592;SDS011;35499;51.482;4.264;2023-04-01T08:31:14;8.32;;;2.60;;
49592;SDS011;35499;51.482;4.264;2023-04-01T08:33:48;6.97;;;2.00;;
49592;SDS011;35499;51.482;4.264;2023-04-01T08:36:15;10.88;;;2.33;;
49592;SDS011;35499;51.482;4.264;2023-04-01T08:38:50;9.18;;;2.65;;
49592;SDS011;35499;51.482;4.264;2023-04-01T09:04:41;4.13;;;1.35;;
49592;SDS011;35499;51.482;4.264;2023-04-01T09:07:43;7.85;;;2.88;;
49592;SDS011;35499;51.482;4.264;2023-04-01T09:35:47;12.50;;;2.15;;
49592;SDS011;35499;51.482;4.264;2023-04-01T10:00:26;5.43;;;1.25;;
49592;SDS011;35499;51.482;4.264;2023-04-01T10:03:13;4.28;;;1.48;;
49592;SDS011;35499;51.482;4.264;2023-04-01T10:18:11;9.48;;;1.42;;
49592;SDS011;35499;51.482;4.264;2023-04-01T10:20:56;5.38;;;1.05;;
49592;SDS011;35499;51.482;4.264;2023-04-01T10:31:51;3.92;;;1.02;;
49592;SDS011;35499;51.482;4.264;2023-04-01T10:34:46;7.63;;;0.95;;
49592;SDS011;35499;51.482;4.264;2023-04-01T10:43:15;2.30;;;1.02;;
49592;SDS011;35499;51.482;4.264;2023-04-01T10:45:55;4.88;;;0.93;;
49592;SDS011;35499;51.482;4.264;2023-04-01T10:51:49;4.50;;;0.85;;
49592;SDS011;35499;51.482;4.264;2023-04-01T11:15:59;4.63;;;0.93;;
49592;SDS011;35499;51.482;4.264;2023-04-01T11:24:32;4.22;;;0.90;;
49592;SDS011;35499;51.482;4.264;2023-04-01T11:30:18;3.83;;;1.55;;
49592;SDS011;35499;51.482;4.264;2023-04-01T11:33:02;5.25;;;1.63;;
49592;SDS011;35499;51.482;4.264;2023-04-01T11:35:48;3.90;;;1.25;;
49592;SDS011;35499;51.482;4.264;2023-04-01T11:46:42;5.47;;;2.45;;
49592;SDS011;35499;51.482;4.264;2023-04-01T11:49:23;7.65;;;2.65;;
49592;SDS011;35499;51.482;4.264;2023-04-01T12:06:44;5.38;;;1.70;;
49592;SDS011;35499;51.482;4.264;2023-04-01T12:09:41;4.72;;;1.92;;
49592;SDS011;35499;51.482;4.264;2023-04-01T12:15:05;5.25;;;1.27;;
49592;SDS011;35499;51.482;4.264;2023-04-01T12:24:05;5.07;;;1.05;;
49592;SDS011;35499;51.482;4.264;2023-04-01T12:26:19;2.10;;;0.65;;
49592;SDS011;35499;51.482;4.264;2023-04-01T12:31:47;3.53;;;0.95;;
49592;SDS011;35499;51.482;4.264;2023-04-01T12:34:37;2.83;;;0.65;;
49592;SDS011;35499;51.482;4.264;2023-04-01T12:40:37;3.75;;;0.68;;
49592;SDS011;35499;51.482;4.264;2023-04-01T12:46:06;2.88;;;0.50;;
49592;SDS011;35499;51.482;4.264;2023-04-01T12:52:01;1.80;;;0.93;;
49592;SDS011;35499;51.482;4.264;2023-04-01T13:00:46;3.65;;;0.90;;
49592;SDS011;35499;51.482;4.264;2023-04-01T13:05:58;4.25;;;1.20;;
49592;SDS011;35499;51.482;4.264;2023-04-01T13:08:39;2.78;;;0.63;;
49592;SDS011;35499;51.482;4.264;2023-04-01T13:16:31;7.03;;;1.52;;
49592;SDS011;35499;51.482;4.264;2023-04-01T13:19:06;3.35;;;0.63;;
49592;SDS011;35499;51.482;4.264;2023-04-01T13:21:49;3.08;;;0.60;;
49592;SDS011;35499;51.482;4.264;2023-04-01T13:32:43;3.20;;;0.60;;
49592;SDS011;35499;51.482;4.264;2023-04-01T13:43:48;4.85;;;0.50;;
49592;SDS011;35499;51.482;4.264;2023-04-01T13:49:06;3.40;;;0.63;;
49592;SDS011;35499;51.482;4.264;2023-04-01T13:54:31;2.78;;;1.23;;
49592;SDS011;35499;51.482;4.264;2023-04-01T14:02:40;6.43;;;1.63;;
49592;SDS011;35499;51.482;4.264;2023-04-01T14:05:19;2.63;;;1.00;;
49592;SDS011;35499;51.482;4.264;2023-04-01T14:13:02;4.60;;;0.50;;
49592;SDS011;35499;51.482;4.264;2023-04-01T14:29:42;4.80;;;0.63;;
49592;SDS011;35499;51.482;4.264;2023-04-01T14:32:38;5.13;;;0.90;;
49592;SDS011;35499;51.482;4.264;2023-04-01T14:43:14;2.38;;;0.82;;
49592;SDS011;35499;51.482;4.264;2023-04-01T14:48:37;2.47;;;1.60;;
49592;SDS011;35499;51.482;4.264;2023-04-01T14:51:17;4.60;;;0.93;;
49592;SDS011;35499;51.482;4.264;2023-04-01T14:53:58;3.83;;;0.85;;
49592;SDS011;35499;51.482;4.264;2023-04-01T14:56:40;4.35;;;0.68;;
49592;SDS011;35499;51.482;4.264;2023-04-01T14:59:29;2.67;;;0.85;;
49592;SDS011;35499;51.482;4.264;2023-04-01T15:04:40;4.10;;;1.52;;
49592;SDS011;35499;51.482;4.264;2023-04-01T15:09:38;6.03;;;1.93;;
49592;SDS011;35499;51.482;4.264;2023-04-01T15:17:43;9.00;;;4.30;;
49592;SDS011;35499;51.482;4.264;2023-04-01T15:25:54;17.70;;;5.03;;
49592;SDS011;35499;51.482;4.264;2023-04-01T15:39:30;18.73;;;5.57;;
49592;SDS011;35499;51.482;4.264;2023-04-01T15:45:18;14.10;;;5.63;;
49592;SDS011;35499;51.482;4.264;2023-04-01T15:48:10;11.52;;;4.72;;
49592;SDS011;35499;51.482;4.264;2023-04-01T15:56:18;8.88;;;2.97;;
49592;SDS011;35499;51.482;4.264;2023-04-01T15:58:59;5.30;;;2.20;;
49592;SDS011;35499;51.482;4.264;2023-04-01T16:07:10;5.15;;;2.00;;
49592;SDS011;35499;51.482;4.264;2023-04-01T16:23:58;7.07;;;2.05;;
49592;SDS011;35499;51.482;4.264;2023-04-01T16:34:56;11.23;;;3.35;;
49592;SDS011;35499;51.482;4.264;2023-04-01T16:37:32;9.18;;;3.58;;
49592;SDS011;35499;51.482;4.264;2023-04-01T16:42:50;14.52;;;4.30;;
49592;SDS011;35499;51.482;4.264;2023-04-01T16:45:35;9.07;;;3.47;;
49592;SDS011;35499;51.482;4.264;2023-04-01T16:48:12;10.98;;;4.07;;
49592;SDS011;35499;51.482;4.264;2023-04-01T16:53:31;9.93;;;3.30;;
49592;SDS011;35499;51.482;4.264;2023-04-01T16:58:35;11.45;;;3.47;;
49592;SDS011;35499;51.482;4.264;2023-04-01T17:01:14;8.63;;;3.60;;
49592;SDS011;35499;51.482;4.264;2023-04-01T17:03:49;12.98;;;3.72;;
49592;SDS011;35499;51.482;4.264;2023-04-01T17:06:30;14.60;;;3.85;;
49592;SDS011;35499;51.482;4.264;2023-04-01T17:19:45;14.23;;;5.03;;
49592;SDS011;35499;51.482;4.264;2023-04-01T17:22:40;13.38;;;4.65;;
49592;SDS011;35499;51.482;4.264;2023-04-01T17:30:30;14.45;;;4.70;;
49592;SDS011;35499;51.482;4.264;2023-04-01T17:35:47;14.63;;;5.22;;
49592;SDS011;35499;51.482;4.264;2023-04-01T17:38:22;19.30;;;5.00;;
49592;SDS011;35499;51.482;4.264;2023-04-01T17:40:58;22.13;;;6.47;;
49592;SDS011;35499;51.482;4.264;2023-04-01T17:45:54;21.15;;;6.25;;
49592;SDS011;35499;51.482;4.264;2023-04-01T17:57:23;13.98;;;5.90;;
49592;SDS011;35499;51.482;4.264;2023-04-01T18:00:46;20.60;;;6.65;;
49592;SDS011;35499;51.482;4.264;2023-04-01T18:02:51;26.88;;;7.60;;
49592;SDS011;35499;51.482;4.264;2023-04-01T18:05:37;22.48;;;6.47;;
49592;SDS011;35499;51.482;4.264;2023-04-01T18:14:50;15.75;;;6.18;;
49592;SDS011;35499;51.482;4.264;2023-04-01T18:19:54;16.42;;;6.03;;
49592;SDS011;35499;51.482;4.264;2023-04-01T18:22:48;15.20;;;6.07;;
49592;SDS011;35499;51.482;4.264;2023-04-01T18:25:35;15.50;;;5.63;;
49592;SDS011;35499;51.482;4.264;2023-04-01T18:28:18;26.60;;;6.47;;
49592;SDS011;35499;51.482;4.264;2023-04-01T18:33:36;20.20;;;6.43;;
49592;SDS011;35499;51.482;4.264;2023-04-01T18:36:24;14.90;;;5.47;;
49592;SDS011;35499;51.482;4.264;2023-04-01T18:39:15;16.33;;;6.35;;
49592;SDS011;35499;51.482;4.264;2023-04-01T18:47:29;18.08;;;6.43;;
49592;SDS011;35499;51.482;4.264;2023-04-01T18:55:53;19.92;;;6.95;;
49592;SDS011;35499;51.482;4.264;2023-04-01T19:06:50;16.17;;;5.25;;
49592;SDS011;35499;51.482;4.264;2023-04-01T19:09:27;17.75;;;6.40;;
49592;SDS011;35499;51.482;4.264;2023-04-01T19:17:25;23.08;;;7.15;;
49592;SDS011;35499;51.482;4.264;2023-04-01T19:20:18;14.18;;;6.15;;
49592;SDS011;35499;51.482;4.264;2023-04-01T19:25:34;18.95;;;7.60;;
49592;SDS011;35499;51.482;4.264;2023-04-01T19:38:31;18.15;;;8.07;;
49592;SDS011;35499;51.482;4.264;2023-04-01T19:46:56;15.63;;;7.63;;
49592;SDS011;35499;51.482;4.264;2023-04-01T19:54:35;14.95;;;7.03;;
49592;SDS011;35499;51.482;4.264;2023-04-01T19:57:41;15.82;;;7.78;;
49592;SDS011;35499;51.482;4.264;2023-04-01T20:02:52;11.40;;;5.45;;
49592;SDS011;35499;51.482;4.264;2023-04-01T20:05:35;16.38;;;6.45;;
49592;SDS011;35499;51.482;4.264;2023-04-01T20:08:17;10.32;;;5.03;;
49592;SDS011;35499;51.482;4.264;2023-04-01T20:10:46;9.05;;;4.38;;
49592;SDS011;35499;51.482;4.264;2023-04-01T20:16:00;9.18;;;4.22;;
49592;SDS011;35499;51.482;4.264;2023-04-01T20:18:39;7.15;;;4.05;;
49592;SDS011;35499;51.482;4.264;2023-04-01T20:23:45;9.35;;;4.80;;
49592;SDS011;35499;51.482;4.264;2023-04-01T20:26:19;8.20;;;3.50;;
49592;SDS011;35499;51.482;4.264;2023-04-01T20:31:36;11.55;;;5.20;;
49592;SDS011;35499;51.482;4.264;2023-04-01T20:36:50;13.57;;;6.80;;
49592;SDS011;35499;51.482;4.264;2023-04-01T20:40:08;11.55;;;6.43;;
49592;SDS011;35499;51.482;4.264;2023-04-01T20:42:34;13.45;;;6.78;;
49592;SDS011;35499;51.482;4.264;2023-04-01T21:03:38;11.15;;;5.88;;
49592;SDS011;35499;51.482;4.264;2023-04-01T21:09:05;12.15;;;6.72;;
49592;SDS011;35499;51.482;4.264;2023-04-01T21:11:45;12.88;;;6.15;;
49592;SDS011;35499;51.482;4.264;2023-04-01T21:14:31;11.65;;;6.18;;
49592;SDS011;35499;51.482;4.264;2023-04-01T21:17:11;12.90;;;6.20;;
49592;SDS011;35499;51.482;4.264;2023-04-01T21:26:03;9.73;;;5.03;;
49592;SDS011;35499;51.482;4.264;2023-04-01T21:31:56;11.20;;;6.55;;
49592;SDS011;35499;51.482;4.264;2023-04-01T21:37:17;10.10;;;4.53;;
49592;SDS011;35499;51.482;4.264;2023-04-01T21:45:24;12.95;;;5.80;;
49592;SDS011;35499;51.482;4.264;2023-04-01T21:48:22;9.27;;;4.88;;
49592;SDS011;35499;51.482;4.264;2023-04-01T21:53:56;11.25;;;5.53;;
49592;SDS011;35499;51.482;4.264;2023-04-01T22:07:19;11.32;;;5.55;;
49592;SDS011;35499;51.482;4.264;2023-04-01T22:09:51;11.18;;;5.70;;
49592;SDS011;35499;51.482;4.264;2023-04-01T22:12:30;10.50;;;4.80;;
49592;SDS011;35499;51.482;4.264;2023-04-01T22:15:08;11.43;;;6.00;;
49592;SDS011;35499;51.482;4.264;2023-04-01T22:18:13;10.57;;;5.63;;
49592;SDS011;35499;51.482;4.264;2023-04-01T22:21:03;9.98;;;4.75;;
49592;SDS011;35499;51.482;4.264;2023-04-01T22:28:45;13.18;;;6.53;;
49592;SDS011;35499;51.482;4.264;2023-04-01T22:31:20;10.00;;;4.93;;
49592;SDS011;35499;51.482;4.264;2023-04-01T22:34:00;11.10;;;5.50;;
49592;SDS011;35499;51.482;4.264;2023-04-01T22:39:29;11.57;;;5.85;;
49592;SDS011;35499;51.482;4.264;2023-04-01T22:42:25;12.52;;;6.32;;
49592;SDS011;35499;51.482;4.264;2023-04-01T22:50:43;11.15;;;5.28;;
49592;SDS011;35499;51.482;4.264;2023-04-01T22:56:17;12.30;;;5.38;;
49592;SDS011;35499;51.482;4.264;2023-04-01T23:01:35;11.73;;;5.68;;
49592;SDS011;35499;51.482;4.264;2023-04-01T23:04:07;10.85;;;5.65;;
49592;SDS011;35499;51.482;4.264;2023-04-01T23:06:38;10.38;;;5.80;;
49592;SDS011;35499;51.482;4.264;2023-04-01T23:09:23;12.40;;;5.78;;
49592;SDS011;35499;51.482;4.264;2023-04-01T23:11:53;8.82;;;4.80;;
49592;SDS011;35499;51.482;4.264;2023-04-01T23:14:29;9.80;;;5.28;;
49592;SDS011;35499;51.482;4.264;2023-04-01T23:19:55;12.23;;;6.57;;
49592;SDS011;35499;51.482;4.264;2023-04-01T23:22:56;12.93;;;6.20;;
49592;SDS011;35499;51.482;4.264;2023-04-01T23:28:35;9.88;;;4.85;;
49592;SDS011;35499;51.482;4.264;2023-04-01T23:31:03;10.98;;;5.57;;
49592;SDS011;35499;51.482;4.264;2023-04-01T23:33:53;10.75;;;5.15;;
49592;SDS011;35499;51.482;4.264;2023-04-01T23:36:23;9.63;;;5.10;;
49592;SDS011;35499;51.482;4.264;2023-04-01T23:38:49;9.38;;;4.95;;
49592;SDS011;35499;51.482;4.264;2023-04-01T23:41:19;9.73;;;4.85;;
49592;SDS011;35499;51.482;4.264;2023-04-01T23:43:55;10.45;;;5.70;;
49592;SDS011;35499;51.482;4.264;2023-04-01T23:46:24;9.35;;;4.90;;
49592;SDS011;35499;51.482;4.264;2023-04-01T23:48:50;9.50;;;5.10;;
49592;SDS011;35499;51.482;4.264;2023-04-01T23:53:56;9.80;;;5.10;;
49592;SDS011;35499;51.482;4.264;2023-04-01T23:56:38;10.35;;;4.43;;
49592;SDS011;35499;51.482;4.264;2023-04-01T23:59:11;7.68;;;3.80;;
